Time;durP1;ratioP1;P1;durP2;ratioP2;P2;SDS_P1;SDS_P2;PMS_P1;PMS_P2;Temp;Humidity;BMP_temperature;BMP_pressure;BME280_temperature;BME280_humidity;BME280_pressure;Samples;Min_cycle;Max_cycle;Signal;HPM_P1;HPM_P2
2024/02/16 00:01:29;;;;;;;;;;;11.10;88.30;;;;;;4958717;28;19926;-76
2024/02/16 00:04:03;;;;;;;;;;;11.10;88.10;;;;;;4965871;28;20377;-73
2024/02/16 00:06:36;;;;;;;;;;;11.10;88.20;;;;;;4966436;28;19949;-75
2024/02/16 00:09:09;;;;;;;;;;;11.10;88.10;;;;;;4967901;28;19930;-75
2024/02/16 00:11:43;;;;;;;;;;;11.10;88.20;;;;;;4967420;28;19926;-72
2024/02/16 00:14:16;;;;;;;;;;;11.10;88.10;;;;;;4963437;28;19997;-72
2024/02/16 00:16:50;;;;;;;;;;;11.10;88.00;;;;;;4965687;28;19926;-75
2024/02/16 00:19:24;;;;;;;;;;;11.10;88.00;;;;;;4963526;28;19985;-72
2024/02/16 00:21:57;;;;;;;;;;;11.10;88.00;;;;;;4961186;28;20016;-71
2024/02/16 00:24:31;;;;;;;;;;;11.10;88.10;;;;;;4961496;28;20044;-71
2024/02/16 00:27:05;;;;;;;;;;;11.10;88.00;;;;;;4965591;28;19934;-73
2024/02/16 00:29:39;;;;;;;;;;;11.10;88.10;;;;;;4966037;28;20374;-74
2024/02/16 00:32:13;;;;;;;;;;;11.10;88.10;;;;;;4968387;28;19930;-74
2024/02/16 00:34:47;;;;;;;;;;;11.10;88.10;;;;;;4965270;28;20378;-73
2024/02/16 00:37:21;;;;;;;;;;;11.10;88.00;;;;;;4967945;28;19952;-72
2024/02/16 00:39:55;;;;;;;;;;;11.10;88.00;;;;;;4968170;28;20345;-72
2024/02/16 00:42:30;;;;;;;;;;;11.10;88.10;;;;;;4969315;28;19926;-71
2024/02/16 00:45:04;;;;;;;;;;;11.10;88.10;;;;;;4959726;28;19966;-74
2024/02/16 00:47:40;;;;;;;;;;;11.10;88.00;;;;;;4964653;28;20414;-71
2024/02/16 00:50:13;;;;;;;;;;;11.10;88.10;;;;;;4966694;28;20455;-72
2024/02/16 00:52:46;;;;;;;;;;;11.10;88.10;;;;;;4964267;28;20297;-73
2024/02/16 00:55:19;;;;;;;;;;;11.10;88.10;;;;;;4966304;28;19926;-61
2024/02/16 00:57:53;;;;;;;;;;;11.00;88.10;;;;;;4962662;28;20017;-61
2024/02/16 01:00:26;;;;;;;;;;;11.00;88.20;;;;;;4967651;28;19926;-60
2024/02/16 01:03:00;;;;;;;;;;;11.00;88.20;;;;;;4959563;28;19926;-61
2024/02/16 01:05:35;;;;;;;;;;;11.00;88.10;;;;;;4967714;28;19930;-60
2024/02/16 01:08:08;;;;;;;;;;;11.00;88.00;;;;;;4969313;28;19945;-61
2024/02/16 01:10:41;;;;;;;;;;;11.00;88.10;;;;;;4960261;28;20332;-61
2024/02/16 01:13:14;;;;;;;;;;;11.00;88.00;;;;;;4960550;28;20280;-60
2024/02/16 01:15:47;;;;;;;;;;;11.00;88.00;;;;;;4967218;28;19934;-60
2024/02/16 01:18:21;;;;;;;;;;;11.00;88.10;;;;;;4968378;28;20001;-61
2024/02/16 01:21:03;;;;;;;;;;;11.00;88.10;;;;;;4965977;28;19930;-61
2024/02/16 01:23:36;;;;;;;;;;;11.00;88.00;;;;;;4975791;28;19930;-61
2024/02/16 01:26:09;;;;;;;;;;;11.00;87.90;;;;;;4968327;28;19933;-60
2024/02/16 01:28:42;;;;;;;;;;;11.00;88.00;;;;;;4968718;28;19933;-60
2024/02/16 01:31:15;;;;;;;;;;;11.00;87.90;;;;;;4967539;28;19926;-60
2024/02/16 01:33:49;;;;;;;;;;;11.00;87.90;;;;;;4967645;28;20373;-60
2024/02/16 01:36:23;;;;;;;;;;;11.00;88.00;;;;;;4967789;28;19981;-61
2024/02/16 01:38:58;;;;;;;;;;;11.00;87.90;;;;;;4966629;28;20043;-61
2024/02/16 01:41:32;;;;;;;;;;;10.90;87.90;;;;;;4970530;28;19926;-61
2024/02/16 01:44:05;;;;;;;;;;;10.90;87.90;;;;;;4970996;28;19926;-61
2024/02/16 01:46:38;;;;;;;;;;;10.90;88.10;;;;;;4972050;28;19930;-61
2024/02/16 01:49:14;;;;;;;;;;;10.90;88.00;;;;;;4971353;28;19926;-61
2024/02/16 01:51:47;;;;;;;;;;;10.90;88.00;;;;;;4965316;28;20353;-59
2024/02/16 01:54:20;;;;;;;;;;;10.90;88.10;;;;;;4958929;28;20397;-61
2024/02/16 01:57:00;;;;;;;;;;;10.90;87.90;;;;;;4962511;28;20049;-61
2024/02/16 01:59:40;;;;;;;;;;;10.90;87.90;;;;;;4967498;28;19938;-60
2024/02/16 02:02:13;;;;;;;;;;;10.90;88.10;;;;;;4969421;28;19938;-61
2024/02/16 02:04:47;;;;;;;;;;;10.90;87.90;;;;;;4971114;28;19936;-70
2024/02/16 02:07:25;;;;;;;;;;;10.90;88.00;;;;;;4979457;28;20440;-70
2024/02/16 02:10:00;;;;;;;;;;;10.90;88.00;;;;;;4972217;28;20436;-71
2024/02/16 02:12:26;;;;;;;;;;;10.80;88.00;;;;;;4973918;28;20033;-70
2024/02/16 02:15:00;;;;;;;;;;;10.80;88.00;;;;;;4972988;28;19930;-70
2024/02/16 02:17:33;;;;;;;;;;;10.80;88.10;;;;;;4973187;28;19933;-70
2024/02/16 02:20:10;;;;;;;;;;;10.80;88.00;;;;;;4973025;28;19926;-70
2024/02/16 02:22:44;;;;;;;;;;;10.70;87.90;;;;;;4968609;28;20390;-70
2024/02/16 02:25:18;;;;;;;;;;;10.70;88.00;;;;;;4972123;28;19926;-71
2024/02/16 02:27:51;;;;;;;;;;;10.60;88.20;;;;;;4971703;28;20385;-71
2024/02/16 02:30:17;;;;;;;;;;;10.60;88.30;;;;;;4972836;28;20374;-72
2024/02/16 02:32:51;;;;;;;;;;;10.60;88.30;;;;;;4971109;28;19930;-70
2024/02/16 02:35:24;;;;;;;;;;;10.60;88.20;;;;;;4972862;28;19927;-71
2024/02/16 02:37:58;;;;;;;;;;;10.60;88.30;;;;;;4968897;28;19962;-70
2024/02/16 02:40:32;;;;;;;;;;;10.50;88.30;;;;;;4972726;28;19927;-69
2024/02/16 02:43:06;;;;;;;;;;;10.50;88.30;;;;;;4972604;28;19972;-71
2024/02/16 02:45:39;;;;;;;;;;;10.50;88.50;;;;;;4973241;28;19949;-71
2024/02/16 02:48:12;;;;;;;;;;;10.40;88.50;;;;;;4973048;28;19926;-70
2024/02/16 02:50:45;;;;;;;;;;;10.40;88.50;;;;;;4972242;28;19930;-70
2024/02/16 02:53:13;;;;;;;;;;;10.50;88.50;;;;;;4967372;28;19930;-71
2024/02/16 02:55:46;;;;;;;;;;;10.40;88.30;;;;;;4971509;28;20819;-71
2024/02/16 02:58:19;;;;;;;;;;;10.30;88.60;;;;;;4971719;28;19934;-69
2024/02/16 03:00:52;;;;;;;;;;;10.30;88.60;;;;;;4971844;28;19926;-69
2024/02/16 03:03:25;;;;;;;;;;;10.30;88.50;;;;;;4971818;28;19936;-71
2024/02/16 03:05:58;;;;;;;;;;;10.20;88.50;;;;;;4971871;28;19936;-71
2024/02/16 03:08:32;;;;;;;;;;;10.20;88.60;;;;;;4970402;28;20013;-71
2024/02/16 03:11:06;;;;;;;;;;;10.30;88.60;;;;;;4968105;28;19930;-71
2024/02/16 03:13:39;;;;;;;;;;;10.20;88.50;;;;;;4965611;28;19926;-60
2024/02/16 03:16:14;;;;;;;;;;;10.30;88.60;;;;;;4971028;28;19933;-60
2024/02/16 03:18:47;;;;;;;;;;;10.20;88.60;;;;;;4971487;28;19984;-61
2024/02/16 03:21:21;;;;;;;;;;;10.30;88.60;;;;;;4971397;28;19937;-59
2024/02/16 03:23:55;;;;;;;;;;;10.30;88.60;;;;;;4972132;28;19926;-60
2024/02/16 03:26:28;;;;;;;;;;;10.30;88.60;;;;;;4968549;28;20009;-60
2024/02/16 03:29:03;;;;;;;;;;;10.30;88.60;;;;;;4971037;28;19936;-60
2024/02/16 03:31:36;;;;;;;;;;;10.20;88.60;;;;;;4970047;28;20274;-60
2024/02/16 03:34:09;;;;;;;;;;;10.20;88.70;;;;;;4969067;28;19926;-60
2024/02/16 03:36:42;;;;;;;;;;;10.10;88.80;;;;;;4971233;28;20460;-59
2024/02/16 03:39:19;;;;;;;;;;;10.10;89.00;;;;;;4964652;28;19937;-60
2024/02/16 03:41:53;;;;;;;;;;;10.20;88.90;;;;;;4967598;28;19937;-59
2024/02/16 03:44:27;;;;;;;;;;;10.10;88.80;;;;;;4968725;28;19932;-60
2024/02/16 03:47:00;;;;;;;;;;;10.10;88.90;;;;;;4970582;28;19965;-61
2024/02/16 03:49:33;;;;;;;;;;;10.10;89.00;;;;;;4970449;28;19930;-60
2024/02/16 03:52:06;;;;;;;;;;;10.10;89.00;;;;;;4969922;28;20026;-59
2024/02/16 03:54:42;;;;;;;;;;;10.10;89.20;;;;;;4986021;28;19994;-59
2024/02/16 03:57:16;;;;;;;;;;;10.10;89.20;;;;;;4970891;28;19938;-60
2024/02/16 03:59:49;;;;;;;;;;;10.10;89.20;;;;;;4968879;28;19976;-60
2024/02/16 04:02:22;;;;;;;;;;;10.10;89.20;;;;;;4969403;28;19934;-61
2024/02/16 04:04:55;;;;;;;;;;;10.10;89.20;;;;;;4969882;28;19930;-60
2024/02/16 04:07:28;;;;;;;;;;;10.10;89.20;;;;;;4968045;28;19933;-60
2024/02/16 04:10:02;;;;;;;;;;;10.00;89.10;;;;;;4970534;28;19960;-62
2024/02/16 04:12:37;;;;;;;;;;;9.90;89.20;;;;;;4970900;28;20004;-61
2024/02/16 04:15:10;;;;;;;;;;;9.90;89.30;;;;;;4970140;28;19934;-60
2024/02/16 04:17:43;;;;;;;;;;;10.00;89.40;;;;;;4970786;28;19926;-60
2024/02/16 04:20:11;;;;;;;;;;;9.90;89.30;;;;;;4970827;28;19931;-62
2024/02/16 04:22:44;;;;;;;;;;;9.90;89.40;;;;;;4970764;28;20333;-63
2024/02/16 04:25:12;;;;;;;;;;;9.90;89.50;;;;;;4963263;28;20045;-60
2024/02/16 04:27:45;;;;;;;;;;;9.90;89.40;;;;;;4968313;28;19933;-62
2024/02/16 04:30:18;;;;;;;;;;;9.90;89.50;;;;;;4965420;28;20293;-61
2024/02/16 04:32:51;;;;;;;;;;;9.90;89.50;;;;;;4966519;28;19933;-60
2024/02/16 04:35:24;;;;;;;;;;;9.80;89.60;;;;;;4969479;28;19930;-60
2024/02/16 04:37:57;;;;;;;;;;;9.80;89.50;;;;;;4968003;28;20004;-60
2024/02/16 04:40:35;;;;;;;;;;;9.70;89.60;;;;;;4969947;28;19952;-60
2024/02/16 04:43:08;;;;;;;;;;;9.70;89.50;;;;;;4967773;28;19930;-60
2024/02/16 04:45:41;;;;;;;;;;;9.70;89.40;;;;;;4968654;28;19930;-61
2024/02/16 04:48:14;;;;;;;;;;;9.70;89.50;;;;;;4970089;28;19930;-61
2024/02/16 04:50:47;;;;;;;;;;;9.70;89.50;;;;;;4957654;28;20020;-60
2024/02/16 04:53:20;;;;;;;;;;;9.60;89.50;;;;;;4963164;28;19933;-59
2024/02/16 04:55:55;;;;;;;;;;;9.60;89.60;;;;;;4966741;28;19937;-60
2024/02/16 04:58:28;;;;;;;;;;;9.60;89.50;;;;;;4967273;28;19926;-60
2024/02/16 05:01:02;;;;;;;;;;;9.50;89.50;;;;;;4961434;28;19931;-62
2024/02/16 05:03:35;;;;;;;;;;;9.50;89.50;;;;;;4963926;28;19962;-60
2024/02/16 05:06:08;;;;;;;;;;;9.50;89.40;;;;;;4966119;28;19969;-61
2024/02/16 05:08:41;;;;;;;;;;;9.50;89.30;;;;;;4963368;28;19984;-61
2024/02/16 05:11:15;;;;;;;;;;;9.50;89.20;;;;;;4967116;28;20497;-60
2024/02/16 05:13:49;;;;;;;;;;;9.40;89.30;;;;;;4969584;28;19961;-60
2024/02/16 05:16:22;;;;;;;;;;;9.40;89.40;;;;;;4961950;28;19926;-59
2024/02/16 05:18:56;;;;;;;;;;;9.40;89.30;;;;;;4968075;28;19934;-60
2024/02/16 05:21:29;;;;;;;;;;;9.30;89.40;;;;;;4967447;28;19945;-60
2024/02/16 05:24:02;;;;;;;;;;;9.30;89.50;;;;;;4966120;28;20449;-60
2024/02/16 05:26:37;;;;;;;;;;;9.30;89.40;;;;;;4967041;28;20301;-60
2024/02/16 05:29:10;;;;;;;;;;;9.20;89.50;;;;;;4967665;28;19934;-61
2024/02/16 05:31:43;;;;;;;;;;;9.20;89.40;;;;;;4961578;28;19957;-60
2024/02/16 05:34:32;;;;;;;;;;;9.20;89.50;;;;;;4964906;28;19934;-59
2024/02/16 05:37:06;;;;;;;;;;;9.20;89.30;;;;;;4964205;28;19930;-59
2024/02/16 05:39:53;;;;;;;;;;;9.30;89.40;;;;;;4964708;28;19941;-60
2024/02/16 05:42:28;;;;;;;;;;;9.20;89.30;;;;;;4965826;28;19930;-61
2024/02/16 05:45:06;;;;;;;;;;;9.20;89.30;;;;;;4964538;28;19926;-60
2024/02/16 06:20:23;;;;;;;;;;;9.00;90.00;;;;;;4968148;28;19960;-60
2024/02/16 06:22:56;;;;;;;;;;;9.00;90.10;;;;;;4968547;28;19926;-59
2024/02/16 06:25:29;;;;;;;;;;;9.00;90.20;;;;;;4967694;28;19937;-59
2024/02/16 06:28:02;;;;;;;;;;;9.00;90.20;;;;;;4965388;28;19997;-60
2024/02/16 06:30:35;;;;;;;;;;;9.00;90.30;;;;;;4963468;28;20460;-60
2024/02/16 06:33:08;;;;;;;;;;;9.10;90.30;;;;;;4966721;28;20305;-60
2024/02/16 06:35:42;;;;;;;;;;;9.10;90.30;;;;;;4969865;28;20020;-59
2024/02/16 06:38:16;;;;;;;;;;;9.10;90.30;;;;;;4965369;28;19930;-60
2024/02/16 06:40:49;;;;;;;;;;;9.10;90.30;;;;;;4970726;28;20288;-60
2024/02/16 06:43:22;;;;;;;;;;;9.10;90.20;;;;;;4971233;28;19977;-60
2024/02/16 06:45:56;;;;;;;;;;;9.20;90.20;;;;;;4968650;28;19941;-61
2024/02/16 06:48:29;;;;;;;;;;;9.20;90.20;;;;;;4969971;28;20009;-61
2024/02/16 06:51:03;;;;;;;;;;;9.10;90.20;;;;;;4969904;28;19937;-62
2024/02/16 06:53:37;;;;;;;;;;;9.10;90.30;;;;;;4969704;28;20215;-63
2024/02/16 06:56:04;;;;;;;;;;;9.20;90.20;;;;;;4971074;28;20049;-63
2024/02/16 06:58:37;;;;;;;;;;;9.20;90.20;;;;;;4970253;28;19981;-61
2024/02/16 07:01:10;;;;;;;;;;;9.20;90.30;;;;;;4971649;28;20460;-60
2024/02/16 07:03:44;;;;;;;;;;;9.20;90.30;;;;;;4965302;28;20729;-62
2024/02/16 07:06:18;;;;;;;;;;;9.20;90.30;;;;;;4969857;28;20444;-62
2024/02/16 07:08:51;;;;;;;;;;;9.20;90.30;;;;;;4966419;28;20393;-60
2024/02/16 07:11:24;;;;;;;;;;;9.20;90.20;;;;;;4965892;28;19941;-61
2024/02/16 07:13:59;;;;;;;;;;;9.20;90.20;;;;;;4968538;28;19941;-60
2024/02/16 07:16:32;;;;;;;;;;;9.20;90.30;;;;;;4971337;28;19933;-61
2024/02/16 07:19:05;;;;;;;;;;;9.10;90.30;;;;;;4971796;28;20021;-61
2024/02/16 07:21:40;;;;;;;;;;;9.20;90.40;;;;;;4970397;28;20769;-63
2024/02/16 07:24:15;;;;;;;;;;;9.20;90.30;;;;;;4967854;28;19944;-61
2024/02/16 07:26:48;;;;;;;;;;;9.20;90.40;;;;;;4966460;28;19977;-60
2024/02/16 07:29:21;;;;;;;;;;;9.20;90.40;;;;;;4968109;28;20025;-61
2024/02/16 07:31:55;;;;;;;;;;;9.20;90.30;;;;;;4964350;28;19941;-61
2024/02/16 07:34:29;;;;;;;;;;;9.20;90.40;;;;;;4970289;28;19926;-61
2024/02/16 07:37:03;;;;;;;;;;;9.20;90.30;;;;;;4969415;28;19930;-60
2024/02/16 07:39:37;;;;;;;;;;;9.20;90.30;;;;;;4968321;28;19962;-61
2024/02/16 07:42:12;;;;;;;;;;;9.20;90.30;;;;;;4964316;28;20305;-61
2024/02/16 07:44:45;;;;;;;;;;;9.20;90.30;;;;;;4964028;28;19926;-63
2024/02/16 07:47:18;;;;;;;;;;;9.20;90.20;;;;;;4960810;28;20312;-62
2024/02/16 07:49:45;;;;;;;;;;;9.30;90.10;;;;;;4967853;28;19930;-61
2024/02/16 07:52:19;;;;;;;;;;;9.30;90.20;;;;;;4966571;28;20003;-62
2024/02/16 07:54:52;;;;;;;;;;;9.30;90.20;;;;;;4967543;28;19930;-69
2024/02/16 07:57:40;;;;;;;;;;;9.30;90.20;;;;;;4967122;28;21444;-70
2024/02/16 08:00:19;;;;;;;;;;;9.30;90.20;;;;;;4965989;28;19933;-70
2024/02/16 08:02:53;;;;;;;;;;;9.30;90.20;;;;;;4968167;28;20362;-71
2024/02/16 08:05:26;;;;;;;;;;;9.30;90.10;;;;;;4968991;28;20405;-71
2024/02/16 08:07:55;;;;;;;;;;;9.30;90.20;;;;;;4969552;28;19929;-70
2024/02/16 08:10:28;;;;;;;;;;;9.30;90.20;;;;;;4965082;28;19934;-71
2024/02/16 08:13:01;;;;;;;;;;;9.40;90.10;;;;;;4969523;28;19930;-72
2024/02/16 08:15:35;;;;;;;;;;;9.40;90.20;;;;;;4967044;28;20012;-71
2024/02/16 08:18:11;;;;;;;;;;;9.40;90.30;;;;;;4968899;28;19938;-70
2024/02/16 08:20:44;;;;;;;;;;;9.50;90.20;;;;;;4967306;28;20473;-71
2024/02/16 08:23:20;;;;;;;;;;;9.50;90.10;;;;;;4969693;28;19929;-69
2024/02/16 08:25:53;;;;;;;;;;;9.60;90.00;;;;;;4968714;28;19933;-72
2024/02/16 08:28:26;;;;;;;;;;;9.60;90.10;;;;;;4967364;28;20016;-71
2024/02/16 08:30:59;;;;;;;;;;;9.70;90.10;;;;;;4967952;28;19984;-71
2024/02/16 08:33:33;;;;;;;;;;;9.60;90.10;;;;;;4966910;28;20281;-71
2024/02/16 08:36:08;;;;;;;;;;;9.70;90.20;;;;;;4965819;28;19930;-71
2024/02/16 08:38:43;;;;;;;;;;;9.70;90.10;;;;;;4968601;28;19933;-70
2024/02/16 08:41:17;;;;;;;;;;;9.70;90.10;;;;;;4968343;28;21483;-70
2024/02/16 08:43:50;;;;;;;;;;;9.70;90.00;;;;;;4967847;28;20005;-69
2024/02/16 08:46:23;;;;;;;;;;;9.70;90.20;;;;;;4964226;28;19930;-71
2024/02/16 08:48:56;;;;;;;;;;;9.70;90.20;;;;;;4966363;28;19936;-70
2024/02/16 08:51:29;;;;;;;;;;;9.70;90.20;;;;;;4966828;28;19937;-70
2024/02/16 08:54:04;;;;;;;;;;;9.70;90.00;;;;;;4964929;28;19985;-70
2024/02/16 08:56:39;;;;;;;;;;;9.80;90.20;;;;;;4966443;28;20271;-70
2024/02/16 09:02:53;;;;;;;;;;;10.00;90.20;;;;;;4897603;28;20485;-71
2024/02/16 09:05:26;;;;;;;;;;;10.00;90.00;;;;;;4964520;28;19937;-62
2024/02/16 09:07:59;;;;;;;;;;;10.00;90.00;;;;;;4969956;28;19934;-62
2024/02/16 09:10:28;;;;;;;;;;;10.10;90.00;;;;;;4982228;28;20313;-62
2024/02/16 09:16:37;;;;;;;;;;;10.20;89.80;;;;;;4965169;28;20404;-62
2024/02/16 09:19:10;;;;;;;;;;;10.20;90.00;;;;;;4969986;28;19926;-62
2024/02/16 09:21:43;;;;;;;;;;;10.30;89.90;;;;;;4967279;28;19927;-62
2024/02/16 09:24:17;;;;;;;;;;;10.40;89.90;;;;;;4969966;28;19933;-62
2024/02/16 09:26:51;;;;;;;;;;;10.40;89.80;;;;;;4967627;28;19956;-62
2024/02/16 09:29:55;;;;;;;;;;;10.50;89.70;;;;;;4965494;28;19927;-63
2024/02/16 09:32:28;;;;;;;;;;;10.60;89.50;;;;;;4966343;28;20036;-62
2024/02/16 09:35:01;;;;;;;;;;;10.80;89.30;;;;;;4967313;28;19966;-63
2024/02/16 09:37:35;;;;;;;;;;;10.90;89.20;;;;;;4966785;28;19926;-62
2024/02/16 09:40:10;;;;;;;;;;;11.10;89.10;;;;;;4964653;28;20305;-63
2024/02/16 09:42:49;;;;;;;;;;;11.10;89.00;;;;;;4966247;28;20296;-61
2024/02/16 09:45:24;;;;;;;;;;;11.20;88.90;;;;;;4961552;28;19932;-62
2024/02/16 09:47:58;;;;;;;;;;;11.30;88.70;;;;;;4965969;28;19962;-63
2024/02/16 09:50:31;;;;;;;;;;;11.40;88.60;;;;;;4966638;28;19926;-61
2024/02/16 09:53:06;;;;;;;;;;;11.40;88.50;;;;;;4968322;28;20088;-62
2024/02/16 09:56:14;;;;;;;;;;;11.50;88.30;;;;;;4969599;28;19965;-62
2024/02/16 09:58:51;;;;;;;;;;;11.60;88.30;;;;;;4963811;28;19930;-63
2024/02/16 10:01:24;;;;;;;;;;;11.60;88.10;;;;;;4964335;28;20069;-62
2024/02/16 10:04:06;;;;;;;;;;;11.70;88.10;;;;;;4966147;28;19926;-62
2024/02/16 10:06:47;;;;;;;;;;;11.70;87.90;;;;;;4969268;28;20041;-61
2024/02/16 10:09:24;;;;;;;;;;;11.80;88.00;;;;;;4969733;28;19937;-65
2024/02/16 10:11:57;;;;;;;;;;;11.90;88.00;;;;;;4967409;28;20298;-62
2024/02/16 10:14:33;;;;;;;;;;;11.90;87.90;;;;;;4970425;28;20013;-73
2024/02/16 10:17:09;;;;;;;;;;;11.90;87.70;;;;;;4969382;28;19932;-73
2024/02/16 10:19:43;;;;;;;;;;;12.00;87.60;;;;;;4973368;28;19961;-71
2024/02/16 10:22:17;;;;;;;;;;;12.00;87.60;;;;;;4971955;28;20018;-74
2024/02/16 10:24:51;;;;;;;;;;;12.10;87.40;;;;;;4971622;28;19940;-72
2024/02/16 10:27:25;;;;;;;;;;;12.20;87.20;;;;;;4968970;28;19926;-72
2024/02/16 10:30:00;;;;;;;;;;;12.20;87.10;;;;;;4968832;28;19934;-71
2024/02/16 10:32:40;;;;;;;;;;;12.30;87.10;;;;;;4971857;28;19949;-72
2024/02/16 10:35:14;;;;;;;;;;;12.40;87.10;;;;;;4972876;28;19932;-72
2024/02/16 10:37:47;;;;;;;;;;;12.40;86.90;;;;;;4969937;28;19938;-72
2024/02/16 10:40:21;;;;;;;;;;;12.40;86.90;;;;;;4969942;28;19966;-72
2024/02/16 10:42:55;;;;;;;;;;;12.40;87.00;;;;;;4971243;28;19930;-72
2024/02/16 10:48:50;;;;;;;;;;;12.60;87.00;;;;;;4956277;28;19961;-72
2024/02/16 10:51:25;;;;;;;;;;;12.60;86.80;;;;;;4970587;28;19934;-72
2024/02/16 10:54:00;;;;;;;;;;;12.70;86.80;;;;;;4969742;28;19972;-74
2024/02/16 10:56:34;;;;;;;;;;;12.80;86.80;;;;;;4973272;28;20017;-73
2024/02/16 10:59:08;;;;;;;;;;;12.80;86.50;;;;;;4967913;28;19980;-73
2024/02/16 11:01:42;;;;;;;;;;;12.90;86.50;;;;;;4964375;28;19926;-74
2024/02/16 11:04:17;;;;;;;;;;;12.90;86.10;;;;;;4969774;28;19992;-73
2024/02/16 11:06:53;;;;;;;;;;;13.00;86.10;;;;;;4964139;28;20289;-73
2024/02/16 11:09:27;;;;;;;;;;;13.10;86.10;;;;;;4982613;28;19926;-75
2024/02/16 11:15:36;;;;;;;;;;;13.10;86.00;;;;;;4960876;28;20612;-73
2024/02/16 11:18:11;;;;;;;;;;;13.20;85.80;;;;;;4971614;28;20024;-74
2024/02/16 11:20:47;;;;;;;;;;;13.20;85.90;;;;;;4969368;28;20279;-71
2024/02/16 11:23:25;;;;;;;;;;;13.30;85.50;;;;;;4968999;28;21983;-73
2024/02/16 11:26:03;;;;;;;;;;;13.40;85.60;;;;;;4967297;28;19926;-71
2024/02/16 11:28:36;;;;;;;;;;;13.40;85.30;;;;;;4966376;28;19934;-70
2024/02/16 11:31:09;;;;;;;;;;;13.50;85.20;;;;;;4962593;28;19937;-70
2024/02/16 11:33:45;;;;;;;;;;;13.50;85.00;;;;;;4969387;28;19930;-71
2024/02/16 11:36:20;;;;;;;;;;;13.60;85.10;;;;;;4973533;28;19930;-71
2024/02/16 11:38:53;;;;;;;;;;;13.60;85.20;;;;;;4977221;28;19927;-70
2024/02/16 11:41:26;;;;;;;;;;;13.60;85.20;;;;;;4977421;28;19990;-71
2024/02/16 11:44:00;;;;;;;;;;;13.70;85.20;;;;;;4971799;28;19926;-71
2024/02/16 11:46:40;;;;;;;;;;;13.70;84.70;;;;;;4975765;28;20296;-70
2024/02/16 11:49:20;;;;;;;;;;;13.80;84.80;;;;;;4965226;28;19926;-71
2024/02/16 11:51:55;;;;;;;;;;;13.80;84.40;;;;;;4963805;28;19934;-71
2024/02/16 11:54:40;;;;;;;;;;;13.90;84.50;;;;;;4969098;28;19926;-71
2024/02/16 11:57:15;;;;;;;;;;;13.90;84.30;;;;;;4969001;28;20286;-70
2024/02/16 11:59:50;;;;;;;;;;;13.90;84.20;;;;;;4966280;28;19926;-71
2024/02/16 12:02:25;;;;;;;;;;;14.00;83.60;;;;;;4968227;28;19926;-70
2024/02/16 12:04:58;;;;;;;;;;;14.20;82.90;;;;;;4966582;28;19926;-71
2024/02/16 12:07:51;;;;;;;;;;;14.20;82.00;;;;;;4968552;28;19930;-71
2024/02/16 12:10:25;;;;;;;;;;;14.30;82.00;;;;;;4961949;28;19966;-71
2024/02/16 12:12:59;;;;;;;;;;;14.40;81.40;;;;;;4967933;28;19933;-72
2024/02/16 12:15:32;;;;;;;;;;;14.40;81.20;;;;;;4962355;28;19930;-71
2024/02/16 12:18:06;;;;;;;;;;;14.40;81.00;;;;;;4966566;28;19930;-69
2024/02/16 12:20:39;;;;;;;;;;;14.40;80.70;;;;;;4969491;28;19930;-71
2024/02/16 12:23:14;;;;;;;;;;;14.50;80.50;;;;;;4968861;28;19948;-71
2024/02/16 12:25:47;;;;;;;;;;;14.50;80.30;;;;;;4968288;28;20004;-71
2024/02/16 12:28:21;;;;;;;;;;;14.50;80.20;;;;;;4971193;28;20017;-70
2024/02/16 12:30:54;;;;;;;;;;;14.50;80.00;;;;;;4968087;28;19985;-71
2024/02/16 12:36:35;;;;;;;;;;;14.60;79.80;;;;;;4957091;28;19966;-71
2024/02/16 12:39:12;;;;;;;;;;;14.60;79.10;;;;;;4969918;28;19973;-71
2024/02/16 12:41:46;;;;;;;;;;;14.70;79.30;;;;;;4967410;28;19930;-71
2024/02/16 12:44:19;;;;;;;;;;;14.80;78.60;;;;;;4963161;28;19937;-59
2024/02/16 12:46:52;;;;;;;;;;;14.90;78.20;;;;;;4964140;28;20349;-60
2024/02/16 12:49:25;;;;;;;;;;;14.90;78.30;;;;;;4954473;28;20463;-61
2024/02/16 12:51:58;;;;;;;;;;;14.90;78.20;;;;;;4964404;28;19933;-60
2024/02/16 12:54:34;;;;;;;;;;;14.90;78.10;;;;;;4965918;28;20012;-60
2024/02/16 12:57:13;;;;;;;;;;;14.90;78.50;;;;;;4960941;28;19926;-60
2024/02/16 13:03:39;;;;;;;;;;;15.10;78.30;;;;;;4961738;28;20041;-60
2024/02/16 13:06:12;;;;;;;;;;;15.10;78.30;;;;;;4963199;28;20296;-61
2024/02/16 13:08:45;;;;;;;;;;;15.10;78.20;;;;;;4963733;28;20305;-60
2024/02/16 13:11:20;;;;;;;;;;;15.10;77.90;;;;;;4967558;28;19962;-60
2024/02/16 13:13:53;;;;;;;;;;;15.10;78.00;;;;;;4958619;28;20016;-60
2024/02/16 13:16:26;;;;;;;;;;;15.10;78.00;;;;;;4962527;28;19953;-60
2024/02/16 13:18:59;;;;;;;;;;;15.10;78.00;;;;;;4967383;28;19926;-61
2024/02/16 13:21:32;;;;;;;;;;;15.10;78.00;;;;;;4965344;28;20523;-60
2024/02/16 13:24:06;;;;;;;;;;;15.10;78.10;;;;;;4962786;28;20390;-61
2024/02/16 13:26:41;;;;;;;;;;;15.10;77.70;;;;;;4962441;28;19933;-61
2024/02/16 13:29:14;;;;;;;;;;;15.10;78.00;;;;;;4962739;28;20016;-60
2024/02/16 13:31:47;;;;;;;;;;;15.10;77.70;;;;;;4964140;28;19957;-60
2024/02/16 13:34:14;;;;;;;;;;;15.00;78.10;;;;;;4958738;28;19934;-60
2024/02/16 13:36:47;;;;;;;;;;;15.00;78.30;;;;;;4963123;28;19938;-61
2024/02/16 13:39:21;;;;;;;;;;;15.00;77.70;;;;;;4962852;28;22744;-61
2024/02/16 13:41:56;;;;;;;;;;;15.10;77.40;;;;;;4962631;28;19945;-59
2024/02/16 13:44:29;;;;;;;;;;;15.10;77.60;;;;;;4958930;28;20297;-61
2024/02/16 13:47:02;;;;;;;;;;;15.10;77.60;;;;;;4957732;28;19945;-61
2024/02/16 13:49:35;;;;;;;;;;;15.00;78.40;;;;;;4963638;28;20021;-61
2024/02/16 13:52:08;;;;;;;;;;;15.00;77.90;;;;;;4962362;28;19997;-61
2024/02/16 13:54:41;;;;;;;;;;;15.10;77.60;;;;;;4965832;28;20048;-70
2024/02/16 13:57:16;;;;;;;;;;;15.10;77.30;;;;;;4966687;28;20480;-72
2024/02/16 13:59:49;;;;;;;;;;;15.10;77.30;;;;;;4967054;28;19930;-71
2024/02/16 14:02:22;;;;;;;;;;;15.10;77.20;;;;;;4962272;28;20293;-71
2024/02/16 14:04:56;;;;;;;;;;;15.10;77.10;;;;;;4964702;28;19930;-71
2024/02/16 14:07:30;;;;;;;;;;;15.10;77.20;;;;;;4965872;28;20432;-71
2024/02/16 14:10:04;;;;;;;;;;;15.10;77.40;;;;;;4965805;28;19941;-71
2024/02/16 14:12:39;;;;;;;;;;;15.10;77.60;;;;;;4966988;28;19936;-70
2024/02/16 14:15:20;;;;;;;;;;;15.10;77.70;;;;;;4963758;28;19926;-70
2024/02/16 14:17:53;;;;;;;;;;;15.10;77.30;;;;;;4959658;28;20017;-70
2024/02/16 14:20:26;;;;;;;;;;;15.00;77.50;;;;;;4962903;28;19934;-70
2024/02/16 14:22:59;;;;;;;;;;;15.00;77.30;;;;;;4962081;28;20416;-71
2024/02/16 14:25:32;;;;;;;;;;;15.10;77.40;;;;;;4960252;28;19934;-71
2024/02/16 14:28:07;;;;;;;;;;;15.10;77.70;;;;;;4954063;28;20521;-70
2024/02/16 14:30:41;;;;;;;;;;;15.10;77.90;;;;;;4966436;28;20376;-70
2024/02/16 14:33:16;;;;;;;;;;;15.10;77.90;;;;;;4966703;28;19926;-71
2024/02/16 14:35:50;;;;;;;;;;;15.10;77.90;;;;;;4968492;28;19930;-70
2024/02/16 14:38:23;;;;;;;;;;;15.20;77.30;;;;;;4963461;28;19926;-70
2024/02/16 14:40:56;;;;;;;;;;;15.30;77.10;;;;;;4966540;28;19942;-70
2024/02/16 14:43:31;;;;;;;;;;;15.30;77.20;;;;;;4965374;28;19936;-71
2024/02/16 14:46:05;;;;;;;;;;;15.30;77.10;;;;;;4962125;28;20025;-70
2024/02/16 14:48:39;;;;;;;;;;;15.30;77.20;;;;;;4970540;28;20337;-71
2024/02/16 14:51:12;;;;;;;;;;;15.40;76.80;;;;;;4970021;28;20004;-70
2024/02/16 14:53:45;;;;;;;;;;;15.40;77.30;;;;;;4965706;28;19929;-71
2024/02/16 14:56:21;;;;;;;;;;;15.40;77.30;;;;;;4963704;28;19926;-70
2024/02/16 14:58:56;;;;;;;;;;;15.30;77.20;;;;;;4968929;28;19940;-70
2024/02/16 15:01:29;;;;;;;;;;;15.30;77.50;;;;;;4970920;28;19930;-70
2024/02/16 15:04:02;;;;;;;;;;;15.30;77.10;;;;;;4956551;28;19974;-60
2024/02/16 15:06:36;;;;;;;;;;;15.30;77.40;;;;;;4967915;28;19930;-60
2024/02/16 15:09:10;;;;;;;;;;;15.30;77.60;;;;;;4969749;28;19985;-60
2024/02/16 15:11:43;;;;;;;;;;;15.30;77.70;;;;;;4969309;28;19989;-59
2024/02/16 15:14:18;;;;;;;;;;;15.30;77.80;;;;;;4967275;28;19941;-61
2024/02/16 15:16:52;;;;;;;;;;;15.30;78.00;;;;;;4965793;28;19930;-61
2024/02/16 15:19:25;;;;;;;;;;;15.30;78.30;;;;;;4964140;28;19984;-60
2024/02/16 15:21:58;;;;;;;;;;;15.30;77.80;;;;;;4967293;28;20342;-59
2024/02/16 15:24:32;;;;;;;;;;;15.30;77.90;;;;;;4971005;28;19935;-60
2024/02/16 15:27:06;;;;;;;;;;;15.30;77.80;;;;;;4967360;28;20020;-60
2024/02/16 15:29:41;;;;;;;;;;;15.20;77.90;;;;;;4966744;28;19933;-62
2024/02/16 15:32:14;;;;;;;;;;;15.20;77.90;;;;;;4968507;28;20021;-61
2024/02/16 15:34:53;;;;;;;;;;;15.20;78.10;;;;;;4967699;28;23178;-60
2024/02/16 15:37:25;;;;;;;;;;;15.20;78.20;;;;;;4966480;28;20379;-61
2024/02/16 15:39:59;;;;;;;;;;;15.20;78.20;;;;;;4970151;28;20333;-60
2024/02/16 15:42:35;;;;;;;;;;;15.20;78.50;;;;;;4968396;28;20305;-60
2024/02/16 15:45:04;;;;;;;;;;;15.20;78.80;;;;;;4960323;28;20087;-64
2024/02/16 15:47:38;;;;;;;;;;;15.20;78.50;;;;;;4965406;28;19957;-59
2024/02/16 15:50:11;;;;;;;;;;;15.20;78.80;;;;;;4968462;28;19930;-60
2024/02/16 15:52:44;;;;;;;;;;;15.10;78.90;;;;;;4967038;28;20049;-61
2024/02/16 15:55:18;;;;;;;;;;;15.10;79.20;;;;;;4964340;28;19934;-59